Time;durP1;ratioP1;P1;durP2;ratioP2;P2;SDS_P1;SDS_P2;PMS_P1;PMS_P2;Temp;Humidity;BMP_temperature;BMP_pressure;BME280_temperature;BME280_humidity;BME280_pressure;Samples;Min_cycle;Max_cycle;Signal;HPM_P1;HPM_P2
2023/01/11 00:00:13;;;;;;;11.93;7.63;;;;;;;;;;5035543;28;20037;-66
2023/01/11 00:02:39;;;;;;;9.57;7.65;;;;;;;;;;5036872;28;20049;-66
2023/01/11 00:05:06;;;;;;;11.25;8.15;;;;;;;;;;5036733;28;20091;-66
2023/01/11 00:07:32;;;;;;;10.18;7.70;;;;;;;;;;5037439;28;20043;-66
2023/01/11 00:10:00;;;;;;;12.27;7.60;;;;;;;;;;5037156;28;20091;-66
2023/01/11 00:12:28;;;;;;;8.82;7.38;;;;;;;;;;5051569;28;20045;-66
2023/01/11 00:14:54;;;;;;;12.00;7.80;;;;;;;;;;5057090;28;20036;-66
2023/01/11 00:17:20;;;;;;;10.75;7.68;;;;;;;;;;5057164;28;20076;-66
2023/01/11 00:19:46;;;;;;;10.73;7.18;;;;;;;;;;5056384;28;20045;-66
2023/01/11 00:22:12;;;;;;;9.07;6.90;;;;;;;;;;5056773;28;20048;-66
2023/01/11 00:24:38;;;;;;;11.13;7.10;;;;;;;;;;5056839;28;20045;-66
2023/01/11 00:27:04;;;;;;;9.20;7.18;;;;;;;;;;5038559;28;20044;-66
2023/01/11 00:29:30;;;;;;;8.50;6.65;;;;;;;;;;5035877;28;20037;-66
2023/01/11 00:31:56;;;;;;;8.82;6.55;;;;;;;;;;5037011;28;20598;-66
2023/01/11 00:34:22;;;;;;;9.15;6.70;;;;;;;;;;5036656;28;20088;-66
2023/01/11 00:36:48;;;;;;;9.55;7.03;;;;;;;;;;5036821;28;20041;-66
2023/01/11 00:39:14;;;;;;;8.50;6.60;;;;;;;;;;5036946;28;20124;-66
2023/01/11 00:49:58;;;;;;;10.25;7.03;;;;;;;;;;5036271;28;20480;-66
2023/01/11 00:52:24;;;;;;;10.80;7.20;;;;;;;;;;5036450;28;20041;-66
2023/01/11 00:54:50;;;;;;;12.02;7.50;;;;;;;;;;5036226;28;20037;-66
2023/01/11 00:57:16;;;;;;;9.43;7.05;;;;;;;;;;5035781;28;20084;-66
2023/01/11 00:59:42;;;;;;;11.15;7.75;;;;;;;;;;5036757;28;20041;-66
2023/01/11 01:02:09;;;;;;;11.65;7.45;;;;;;;;;;5032146;28;20068;-66
2023/01/11 01:04:36;;;;;;;9.48;6.75;;;;;;;;;;5033078;28;20407;-66
2023/01/11 01:07:02;;;;;;;10.82;7.60;;;;;;;;;;5032644;28;20040;-66
2023/01/11 01:09:28;;;;;;;11.55;7.90;;;;;;;;;;5031429;28;20456;-66
2023/01/11 01:11:55;;;;;;;11.45;8.30;;;;;;;;;;5042511;28;20048;-66
2023/01/11 01:14:28;;;;;;;9.43;7.47;;;;;;;;;;5052207;28;20049;-66
2023/01/11 01:16:55;;;;;;;12.73;8.05;;;;;;;;;;5051596;28;20051;-66
2023/01/11 01:19:21;;;;;;;10.70;7.65;;;;;;;;;;5051887;28;20063;-66
2023/01/11 01:21:48;;;;;;;11.15;8.05;;;;;;;;;;5052566;28;20511;-66
2023/01/11 01:24:14;;;;;;;11.85;7.88;;;;;;;;;;5052141;28;20040;-66
2023/01/11 01:26:40;;;;;;;11.07;8.00;;;;;;;;;;5038024;28;20464;-66
2023/01/11 01:29:06;;;;;;;12.68;8.70;;;;;;;;;;5033100;28;20038;-66
2023/01/11 01:31:32;;;;;;;10.43;8.52;;;;;;;;;;5032263;28;20037;-66
2023/01/11 01:33:58;;;;;;;16.58;8.30;;;;;;;;;;5031683;28;20383;-66
2023/01/11 01:36:24;;;;;;;11.05;7.80;;;;;;;;;;5032483;28;20437;-66
2023/01/11 01:38:50;;;;;;;12.27;7.88;;;;;;;;;;5032578;28;20072;-66
2023/01/11 01:41:16;;;;;;;11.13;8.10;;;;;;;;;;5032567;28;20038;-66
2023/01/11 01:43:50;;;;;;;9.55;7.47;;;;;;;;;;5032169;28;20476;-66
2023/01/11 01:46:17;;;;;;;12.35;7.72;;;;;;;;;;5031617;28;20060;-66
2023/01/11 01:48:46;;;;;;;12.88;8.35;;;;;;;;;;5032043;28;20099;-66
2023/01/11 01:51:14;;;;;;;9.25;7.05;;;;;;;;;;5032654;28;20511;-66
2023/01/11 01:53:42;;;;;;;9.48;7.03;;;;;;;;;;5032591;28;20034;-66
2023/01/11 01:56:35;;;;;;;10.93;7.50;;;;;;;;;;5031967;28;20096;-66
2023/01/11 01:59:06;;;;;;;11.43;6.82;;;;;;;;;;5030248;28;20128;-66
2023/01/11 02:01:48;;;;;;;8.75;6.47;;;;;;;;;;5032562;28;20123;-66
2023/01/11 02:04:25;;;;;;;10.13;6.47;;;;;;;;;;5031825;28;20037;-66
2023/01/11 02:06:57;;;;;;;7.82;6.22;;;;;;;;;;5032290;28;20495;-66
2023/01/11 02:09:26;;;;;;;9.95;7.10;;;;;;;;;;5032367;28;20034;-66
2023/01/11 02:11:53;;;;;;;9.95;6.15;;;;;;;;;;5041907;28;20515;-66
2023/01/11 02:14:19;;;;;;;13.88;7.28;;;;;;;;;;5051476;28;20124;-66
2023/01/11 02:16:45;;;;;;;10.38;7.47;;;;;;;;;;5052284;28;20037;-66
2023/01/11 02:19:28;;;;;;;9.52;6.55;;;;;;;;;;5051643;28;20037;-66
2023/01/11 02:22:13;;;;;;;12.40;7.03;;;;;;;;;;5051739;28;20507;-66
2023/01/11 02:24:43;;;;;;;8.43;6.05;;;;;;;;;;5051966;28;20056;-66
2023/01/11 02:27:17;;;;;;;7.78;5.80;;;;;;;;;;5033154;28;20056;-66
2023/01/11 02:29:52;;;;;;;10.70;6.25;;;;;;;;;;5032032;28;20037;-66
2023/01/11 02:32:24;;;;;;;10.10;6.57;;;;;;;;;;5031869;28;20045;-66
2023/01/11 02:34:56;;;;;;;9.52;5.97;;;;;;;;;;5031301;28;20391;-66
2023/01/11 02:37:27;;;;;;;10.93;5.90;;;;;;;;;;5030841;28;20065;-66
2023/01/11 02:39:56;;;;;;;7.90;5.88;;;;;;;;;;5031730;28;20131;-66
2023/01/11 02:45:24;;;;;;;7.78;5.20;;;;;;;;;;5030860;28;20073;-66
2023/01/11 02:47:56;;;;;;;8.40;5.72;;;;;;;;;;5028901;28;20048;-66
2023/01/11 02:50:35;;;;;;;9.32;5.25;;;;;;;;;;5029825;28;20044;-66
2023/01/11 02:53:28;;;;;;;5.97;4.63;;;;;;;;;;5031126;28;20053;-66
2023/01/11 02:55:56;;;;;;;6.32;4.68;;;;;;;;;;5028568;28;20468;-66
2023/01/11 02:58:24;;;;;;;6.05;4.80;;;;;;;;;;5030226;28;20041;-66
2023/01/11 03:00:50;;;;;;;8.25;4.95;;;;;;;;;;5030939;28;20038;-66
2023/01/11 03:03:20;;;;;;;8.75;5.05;;;;;;;;;;5030062;28;20065;-66
2023/01/11 03:05:59;;;;;;;7.30;5.13;;;;;;;;;;5029309;28;20049;-66
2023/01/11 03:08:28;;;;;;;7.90;4.25;;;;;;;;;;5029582;28;20049;-66
2023/01/11 03:10:53;;;;;;;6.82;3.95;;;;;;;;;;5031679;28;20068;-66
2023/01/11 03:13:22;;;;;;;6.45;4.07;;;;;;;;;;5049005;28;20388;-66
2023/01/11 03:15:59;;;;;;;6.35;3.85;;;;;;;;;;5048788;28;20045;-66
2023/01/11 03:18:31;;;;;;;6.45;4.03;;;;;;;;;;5049897;28;20102;-66
2023/01/11 03:21:14;;;;;;;5.30;3.83;;;;;;;;;;5049906;28;20092;-66
2023/01/11 03:23:46;;;;;;;5.25;3.65;;;;;;;;;;5050247;28;20098;-66
2023/01/11 03:26:12;;;;;;;6.50;3.10;;;;;;;;;;5038109;28;20104;-66
2023/01/11 03:29:04;;;;;;;3.38;2.55;;;;;;;;;;5030708;28;20447;-66
2023/01/11 03:31:39;;;;;;;3.70;2.53;;;;;;;;;;5027296;28;20057;-66
2023/01/11 03:34:15;;;;;;;4.28;2.70;;;;;;;;;;5028153;28;20071;-66
2023/01/11 03:37:01;;;;;;;3.13;2.33;;;;;;;;;;5030162;28;20037;-66
2023/01/11 03:39:42;;;;;;;3.75;2.38;;;;;;;;;;5029677;28;20056;-66
2023/01/11 03:42:09;;;;;;;5.43;2.40;;;;;;;;;;5030271;28;20128;-66
2023/01/11 03:44:45;;;;;;;5.78;2.30;;;;;;;;;;5030785;28;20037;-66
2023/01/11 03:47:12;;;;;;;3.28;2.35;;;;;;;;;;5030307;28;20045;-66
2023/01/11 03:50:05;;;;;;;3.13;2.10;;;;;;;;;;5030772;28;20420;-66
2023/01/11 03:52:34;;;;;;;4.10;2.28;;;;;;;;;;5028319;28;20053;-66
2023/01/11 03:55:01;;;;;;;2.45;2.03;;;;;;;;;;5029131;28;20069;-66
2023/01/11 03:57:30;;;;;;;2.40;1.90;;;;;;;;;;5030613;28;20427;-66
2023/01/11 03:59:56;;;;;;;5.28;2.17;;;;;;;;;;5030390;28;20046;-66
2023/01/11 04:02:27;;;;;;;2.08;1.85;;;;;;;;;;5029378;28;20041;-66
2023/01/11 04:04:53;;;;;;;2.35;1.75;;;;;;;;;;5030637;28;20106;-66
2023/01/11 04:07:19;;;;;;;1.83;1.50;;;;;;;;;;5030469;28;20116;-66
2023/01/11 04:09:45;;;;;;;2.22;1.73;;;;;;;;;;5030045;28;20073;-66
2023/01/11 04:12:11;;;;;;;2.42;1.40;;;;;;;;;;5042964;28;20052;-66
2023/01/11 04:14:37;;;;;;;4.50;2.10;;;;;;;;;;5065601;28;20041;-66
2023/01/11 04:17:04;;;;;;;3.85;2.03;;;;;;;;;;5050101;28;20411;-66
2023/01/11 04:19:30;;;;;;;3.42;2.28;;;;;;;;;;5050217;28;20057;-66
2023/01/11 04:21:56;;;;;;;4.32;2.50;;;;;;;;;;5049925;28;20721;-66
2023/01/11 04:24:22;;;;;;;3.85;2.38;;;;;;;;;;5049863;28;20522;-66
2023/01/11 04:26:48;;;;;;;5.35;3.40;;;;;;;;;;5034608;28;20045;-66
2023/01/11 04:29:14;;;;;;;7.32;3.75;;;;;;;;;;5028888;28;20050;-66
2023/01/11 04:31:40;;;;;;;9.13;3.95;;;;;;;;;;5029654;28;20037;-66
2023/01/11 04:34:07;;;;;;;8.93;3.92;;;;;;;;;;5028705;28;20049;-66
2023/01/11 04:36:33;;;;;;;9.30;4.93;;;;;;;;;;5032018;28;20037;-66
2023/01/11 04:38:59;;;;;;;12.20;5.13;;;;;;;;;;5033533;28;20154;-66
2023/01/11 04:44:10;;;;;;;10.93;5.13;;;;;;;;;;5033501;28;20056;-66
2023/01/11 04:46:36;;;;;;;15.02;5.22;;;;;;;;;;5033626;28;20052;-66
2023/01/11 04:49:02;;;;;;;21.65;5.45;;;;;;;;;;5033783;28;20042;-66
2023/01/11 04:51:28;;;;;;;14.00;5.32;;;;;;;;;;5033975;28;20041;-66
2023/01/11 04:53:54;;;;;;;20.17;6.00;;;;;;;;;;5033212;28;20392;-66
2023/01/11 04:56:20;;;;;;;17.65;5.65;;;;;;;;;;5033969;28;20120;-66
2023/01/11 04:58:46;;;;;;;24.42;6.40;;;;;;;;;;5033752;28;20531;-66
2023/01/11 05:01:16;;;;;;;26.83;6.35;;;;;;;;;;5033372;28;20045;-66
2023/01/11 05:03:44;;;;;;;23.23;6.07;;;;;;;;;;5033138;28;20569;-66
2023/01/11 05:06:10;;;;;;;24.65;5.72;;;;;;;;;;5033839;28;20049;-66
2023/01/11 05:08:36;;;;;;;23.15;4.78;;;;;;;;;;5032918;28;20445;-66
2023/01/11 05:11:03;;;;;;;26.35;4.72;;;;;;;;;;5036691;28;20029;-66
2023/01/11 05:13:42;;;;;;;25.50;4.90;;;;;;;;;;5053216;28;20052;-66
2023/01/11 05:16:13;;;;;;;22.08;4.57;;;;;;;;;;5051453;28;20048;-66
2023/01/11 05:18:40;;;;;;;30.67;5.53;;;;;;;;;;5053370;28;20053;-66
2023/01/11 05:21:06;;;;;;;36.47;4.57;;;;;;;;;;5052839;28;20134;-66
2023/01/11 05:23:34;;;;;;;27.52;4.85;;;;;;;;;;5051164;28;20049;-66
2023/01/11 05:26:01;;;;;;;36.90;4.50;;;;;;;;;;5044172;28;20049;-66
2023/01/11 05:28:27;;;;;;;25.15;4.38;;;;;;;;;;5032937;28;20044;-66
2023/01/11 05:30:53;;;;;;;25.95;4.28;;;;;;;;;;5032649;28;20091;-66
2023/01/11 05:33:20;;;;;;;22.65;3.67;;;;;;;;;;5032799;28;20043;-66
2023/01/11 05:35:46;;;;;;;27.42;4.50;;;;;;;;;;5032800;28;20041;-66
2023/01/11 05:38:12;;;;;;;31.05;4.95;;;;;;;;;;5032396;28;20502;-66
2023/01/11 05:40:38;;;;;;;28.30;5.90;;;;;;;;;;5032934;28;20128;-66
2023/01/11 05:43:04;;;;;;;27.48;4.72;;;;;;;;;;5033095;28;20063;-66
2023/01/11 05:45:31;;;;;;;26.90;4.43;;;;;;;;;;5031431;28;20045;-66
2023/01/11 05:48:00;;;;;;;35.15;4.43;;;;;;;;;;5032098;28;20366;-66
2023/01/11 05:50:26;;;;;;;25.48;4.78;;;;;;;;;;5032590;28;20045;-66
2023/01/11 05:52:52;;;;;;;25.92;4.38;;;;;;;;;;5032658;28;20460;-66
2023/01/11 05:55:18;;;;;;;32.97;4.93;;;;;;;;;;5032928;28;20124;-65
2023/01/11 05:57:45;;;;;;;34.88;5.22;;;;;;;;;;5032723;28;20056;-65
2023/01/11 06:00:12;;;;;;;28.38;4.43;;;;;;;;;;5032543;28;20715;-65
2023/01/11 06:02:38;;;;;;;31.42;5.40;;;;;;;;;;5032274;28;20102;-65
2023/01/11 06:05:04;;;;;;;28.70;4.13;;;;;;;;;;5032532;28;20049;-66
2023/01/11 06:07:31;;;;;;;28.45;4.28;;;;;;;;;;5038003;28;20061;-66
2023/01/11 06:09:57;;;;;;;25.02;4.43;;;;;;;;;;5022915;28;20037;-66
2023/01/11 06:12:23;;;;;;;32.28;4.15;;;;;;;;;;5042279;28;20045;-66
2023/01/11 06:14:49;;;;;;;28.75;4.78;;;;;;;;;;5026300;28;20099;-66
2023/01/11 06:17:15;;;;;;;31.40;4.55;;;;;;;;;;5011144;28;20054;-66
2023/01/11 06:19:41;;;;;;;33.40;4.38;;;;;;;;;;5018749;28;20048;-67
2023/01/11 06:22:07;;;;;;;35.83;4.30;;;;;;;;;;5030943;28;20046;-68
2023/01/11 06:24:33;;;;;;;31.17;4.82;;;;;;;;;;5031709;28;20033;-66
2023/01/11 06:26:59;;;;;;;27.75;4.90;;;;;;;;;;5024490;28;20038;-66
2023/01/11 06:29:25;;;;;;;31.15;4.47;;;;;;;;;;5032305;28;20044;-66
2023/01/11 06:31:51;;;;;;;31.77;5.07;;;;;;;;;;5030940;28;20041;-66
2023/01/11 06:34:17;;;;;;;38.17;5.47;;;;;;;;;;5032229;28;20041;-66
2023/01/11 06:36:43;;;;;;;33.65;5.28;;;;;;;;;;5031543;28;20561;-66
2023/01/11 06:39:09;;;;;;;27.13;4.43;;;;;;;;;;5031527;28;20056;-66
2023/01/11 06:41:35;;;;;;;35.05;4.63;;;;;;;;;;5031154;28;20056;-66
2023/01/11 06:44:01;;;;;;;34.53;5.10;;;;;;;;;;5030951;28;20077;-66
2023/01/11 06:46:27;;;;;;;30.83;4.35;;;;;;;;;;5030123;28;20064;-67
2023/01/11 06:48:54;;;;;;;32.13;4.53;;;;;;;;;;5030984;28;20049;-67
2023/01/11 06:51:20;;;;;;;33.83;4.82;;;;;;;;;;5031367;28;20129;-67
2023/01/11 06:53:46;;;;;;;34.53;4.68;;;;;;;;;;5030649;28;20442;-67
2023/01/11 06:56:13;;;;;;;37.38;4.47;;;;;;;;;;5032052;28;20053;-67
2023/01/11 06:58:39;;;;;;;30.60;4.70;;;;;;;;;;5030777;28;20117;-66
2023/01/11 07:01:05;;;;;;;37.30;4.85;;;;;;;;;;5031364;28;20041;-66
2023/01/11 07:03:31;;;;;;;36.25;4.50;;;;;;;;;;5029552;28;20045;-66
2023/01/11 07:05:58;;;;;;;35.85;5.00;;;;;;;;;;5031910;28;20147;-66
2023/01/11 07:08:25;;;;;;;29.15;4.55;;;;;;;;;;5030704;28;20045;-66
2023/01/11 07:10:51;;;;;;;33.28;3.90;;;;;;;;;;5032563;28;20038;-66
2023/01/11 07:13:17;;;;;;;36.55;4.20;;;;;;;;;;5031152;28;20125;-67
2023/01/11 07:15:44;;;;;;;33.25;5.18;;;;;;;;;;5030147;28;20541;-67
2023/01/11 07:18:10;;;;;;;37.47;4.93;;;;;;;;;;5030870;28;20045;-67
2023/01/11 07:20:36;;;;;;;34.83;5.15;;;;;;;;;;5022207;28;20053;-66
2023/01/11 07:23:02;;;;;;;33.80;5.28;;;;;;;;;;5029201;28;20099;-67
2023/01/11 07:25:29;;;;;;;32.42;5.07;;;;;;;;;;5029958;28;20040;-66
2023/01/11 07:28:05;;;;;;;33.63;4.50;;;;;;;;;;5033011;28;20045;-66
2023/01/11 07:30:32;;;;;;;46.83;6.43;;;;;;;;;;5029558;28;20079;-66
2023/01/11 07:32:59;;;;;;;27.45;4.47;;;;;;;;;;5031024;28;20041;-66
2023/01/11 07:35:25;;;;;;;31.63;5.22;;;;;;;;;;5029969;28;20052;-66
2023/01/11 07:37:51;;;;;;;41.28;5.75;;;;;;;;;;5030001;28;20041;-68
2023/01/11 07:40:17;;;;;;;34.85;5.18;;;;;;;;;;5027272;28;20555;-67
2023/01/11 07:45:35;;;;;;;36.50;5.45;;;;;;;;;;5028106;28;20049;-67
2023/01/11 07:48:03;;;;;;;32.33;5.72;;;;;;;;;;5026730;28;20041;-67
2023/01/11 07:50:29;;;;;;;30.25;5.30;;;;;;;;;;5027079;28;20131;-67
2023/01/11 07:52:55;;;;;;;25.25;4.38;;;;;;;;;;5026439;28;20045;-67
2023/01/11 07:55:21;;;;;;;26.73;4.07;;;;;;;;;;5027793;28;20594;-67
2023/01/11 07:57:47;;;;;;;37.38;4.35;;;;;;;;;;5025021;28;20443;-67
2023/01/11 08:00:14;;;;;;;27.58;5.03;;;;;;;;;;5025962;28;20049;-66
2023/01/11 08:02:40;;;;;;;28.13;4.35;;;;;;;;;;5022748;28;20045;-67
2023/01/11 08:05:06;;;;;;;28.20;4.63;;;;;;;;;;5027576;28;20051;-68
2023/01/11 08:07:32;;;;;;;34.45;5.07;;;;;;;;;;5026185;28;20056;-68
2023/01/11 08:09:58;;;;;;;27.67;5.05;;;;;;;;;;5026510;28;20037;-67
2023/01/11 08:15:12;;;;;;;25.83;4.50;;;;;;;;;;5041177;28;20376;-68
2023/01/11 08:17:38;;;;;;;30.58;3.70;;;;;;;;;;5032665;28;20144;-68
2023/01/11 08:20:05;;;;;;;17.63;3.70;;;;;;;;;;5028572;28;20504;-67
2023/01/11 08:22:31;;;;;;;17.75;3.20;;;;;;;;;;5028969;28;20050;-67
2023/01/11 08:24:57;;;;;;;21.10;3.10;;;;;;;;;;5028165;28;20351;-65
2023/01/11 08:27:23;;;;;;;19.85;2.65;;;;;;;;;;5031123;28;20041;-66
2023/01/11 08:29:49;;;;;;;17.25;2.72;;;;;;;;;;5030664;28;20123;-67
2023/01/11 08:32:15;;;;;;;17.40;3.03;;;;;;;;;;5032094;28;20686;-67
2023/01/11 08:34:41;;;;;;;18.73;2.78;;;;;;;;;;5030918;28;20042;-67
2023/01/11 08:37:07;;;;;;;15.93;3.70;;;;;;;;;;5014752;28;20034;-66
2023/01/11 08:39:33;;;;;;;15.60;3.28;;;;;;;;;;5028714;28;20049;-67
2023/01/11 08:41:59;;;;;;;20.42;3.08;;;;;;;;;;5030340;28;20095;-67
2023/01/11 08:44:26;;;;;;;14.60;2.10;;;;;;;;;;5030715;28;20044;-66
2023/01/11 08:46:52;;;;;;;16.52;2.63;;;;;;;;;;5030231;28;20045;-66
2023/01/11 08:49:18;;;;;;;17.52;2.97;;;;;;;;;;5031407;28;20560;-67
2023/01/11 08:51:44;;;;;;;17.85;2.67;;;;;;;;;;5029792;28;20124;-67
2023/01/11 08:54:11;;;;;;;14.25;2.00;;;;;;;;;;5031488;28;20041;-67
2023/01/11 08:56:37;;;;;;;10.93;1.80;;;;;;;;;;5030560;28;20041;-68
2023/01/11 08:59:04;;;;;;;11.68;2.67;;;;;;;;;;5030877;28;20045;-66
2023/01/11 09:01:30;;;;;;;20.48;2.95;;;;;;;;;;5028880;28;20034;-66
2023/01/11 09:03:56;;;;;;;13.98;1.92;;;;;;;;;;5031945;28;20045;-66
2023/01/11 09:06:22;;;;;;;12.10;2.22;;;;;;;;;;5026511;28;20073;-66
2023/01/11 09:08:48;;;;;;;12.90;2.00;;;;;;;;;;5029027;28;20045;-66
2023/01/11 09:13:59;;;;;;;16.77;2.80;;;;;;;;;;5026932;28;20037;-66
2023/01/11 09:16:25;;;;;;;12.32;2.17;;;;;;;;;;5024444;28;20648;-66
2023/01/11 09:18:51;;;;;;;17.40;2.92;;;;;;;;;;5020896;28;20037;-66
2023/01/11 09:21:18;;;;;;;24.67;2.90;;;;;;;;;;5017375;28;20045;-66
2023/01/11 09:23:44;;;;;;;17.25;3.17;;;;;;;;;;5024517;28;20542;-66
2023/01/11 09:26:11;;;;;;;18.00;2.70;;;;;;;;;;5024212;28;20034;-66
2023/01/11 09:28:38;;;;;;;16.83;3.33;;;;;;;;;;5027937;28;20038;-67
2023/01/11 09:31:04;;;;;;;26.08;3.65;;;;;;;;;;5029913;28;20088;-66
2023/01/11 09:33:30;;;;;;;22.45;3.63;;;;;;;;;;5028757;28;20045;-67
2023/01/11 09:35:57;;;;;;;20.50;3.22;;;;;;;;;;5022782;28;20049;-67
2023/01/11 09:38:28;;;;;;;15.23;2.97;;;;;;;;;;5018668;28;20045;-66
2023/01/11 09:41:11;;;;;;;19.38;3.50;;;;;;;;;;5021095;28;20058;-66
2023/01/11 09:43:38;;;;;;;;;;;;;;;;;;5029742;28;20072;-67
2023/01/11 09:46:07;;;;;;;17.85;2.80;;;;;;;;;;5026789;28;19923;-66
2023/01/11 09:48:53;;;;;;;21.73;4.10;;;;;;;;;;5024507;28;20112;-65
2023/01/11 09:51:21;;;;;;;21.70;3.63;;;;;;;;;;5022985;28;20041;-67
2023/01/11 09:53:52;;;;;;;18.42;2.67;;;;;;;;;;5040718;28;20831;-66
2023/01/11 09:56:38;;;;;;;16.52;2.72;;;;;;;;;;5025663;28;20041;-66
2023/01/11 09:59:18;;;;;;;15.32;2.38;;;;;;;;;;5022553;28;20045;-66
2023/01/11 10:01:52;;;;;;;17.88;2.83;;;;;;;;;;5025060;28;20041;-65
2023/01/11 10:04:31;;;;;;;25.10;3.53;;;;;;;;;;5027414;28;20057;-65
2023/01/11 10:07:01;;;;;;;17.52;3.10;;;;;;;;;;5005565;28;20050;-66
2023/01/11 10:09:30;;;;;;;19.10;3.55;;;;;;;;;;5030501;28;20438;-67
2023/01/11 10:12:12;;;;;;;16.27;2.92;;;;;;;;;;5028583;28;20060;-65
2023/01/11 10:14:55;;;;;;;16.80;3.03;;;;;;;;;;5026486;28;20033;-65
2023/01/11 10:17:31;;;;;;;17.65;2.88;;;;;;;;;;5025217;28;20779;-66
2023/01/11 10:20:00;;;;;;;16.80;3.38;;;;;;;;;;5028855;28;20073;-66
2023/01/11 10:22:31;;;;;;;18.50;3.15;;;;;;;;;;5023217;28;20123;-66
2023/01/11 10:25:06;;;;;;;20.30;3.35;;;;;;;;;;5030600;28;20065;-66
2023/01/11 10:27:37;;;;;;;21.25;3.63;;;;;;;;;;5028117;28;20053;-74
2023/01/11 10:31:10;;;;;;;21.80;3.72;;;;;;;;;;5043255;28;20045;-72
2023/01/11 10:41:32;;;;;;;27.20;3.90;;;;;;;;;;5029457;28;20072;-69
2023/01/11 10:44:29;;;;;;;24.70;3.35;;;;;;;;;;5026618;28;20061;-68
2023/01/11 10:46:56;;;;;;;20.65;4.32;;;;;;;;;;5010549;28;20563;-68
2023/01/11 10:49:25;;;;;;;20.52;3.38;;;;;;;;;;5026529;28;20053;-69
2023/01/11 10:51:52;;;;;;;17.55;3.20;;;;;;;;;;5029270;28;20025;-69
2023/01/11 10:54:32;;;;;;;16.10;3.25;;;;;;;;;;5029319;28;20535;-69
2023/01/11 10:57:16;;;;;;;19.00;3.95;;;;;;;;;;5021150;28;20045;-69
2023/01/11 10:59:52;;;;;;;26.45;4.50;;;;;;;;;;5027356;28;20480;-69
2023/01/11 11:02:30;;;;;;;21.50;3.28;;;;;;;;;;5026969;28;20442;-68
2023/01/11 11:04:56;;;;;;;21.33;3.28;;;;;;;;;;5023866;28;20081;-70
2023/01/11 11:07:49;;;;;;;18.30;3.38;;;;;;;;;;5029445;28;20494;-70
2023/01/11 11:10:15;;;;;;;18.60;3.15;;;;;;;;;;5028009;28;20042;-70
2023/01/11 11:12:44;;;;;;;22.63;3.15;;;;;;;;;;5029459;28;20136;-69
2023/01/11 11:15:13;;;;;;;23.00;3.22;;;;;;;;;;5029563;28;20049;-69
2023/01/11 11:17:40;;;;;;;16.45;3.30;;;;;;;;;;5044923;28;20644;-69
2023/01/11 11:20:14;;;;;;;21.08;3.10;;;;;;;;;;5038360;28;20450;-69
2023/01/11 11:22:40;;;;;;;12.25;2.55;;;;;;;;;;5009648;28;20542;-68
2023/01/11 11:25:18;;;;;;;19.15;2.65;;;;;;;;;;5027090;28;20538;-68
2023/01/11 11:27:45;;;;;;;15.13;2.70;;;;;;;;;;5028887;28;20052;-70
2023/01/11 11:30:12;;;;;;;18.52;3.05;;;;;;;;;;5028880;28;20137;-67
2023/01/11 11:32:40;;;;;;;18.25;2.85;;;;;;;;;;5020629;28;20817;-67
2023/01/11 11:35:07;;;;;;;20.70;2.92;;;;;;;;;;4992908;28;20052;-67
2023/01/11 11:37:35;;;;;;;24.95;3.95;;;;;;;;;;5030873;28;20392;-67
2023/01/11 11:40:02;;;;;;;16.25;2.90;;;;;;;;;;5030254;28;20056;-67
2023/01/11 11:42:28;;;;;;;19.02;3.00;;;;;;;;;;5030269;28;20048;-67
2023/01/11 11:45:17;;;;;;;21.90;3.67;;;;;;;;;;5020045;28;20077;-67
2023/01/11 11:47:59;;;;;;;16.08;3.65;;;;;;;;;;5002187;28;20164;-67
2023/01/11 11:50:25;;;;;;;15.43;3.33;;;;;;;;;;5030847;28;20044;-67
2023/01/11 11:52:54;;;;;;;19.77;3.33;;;;;;;;;;5023573;28;20287;-68
2023/01/11 11:55:23;;;;;;;24.02;3.70;;;;;;;;;;5016998;28;20079;-68
2023/01/11 11:57:49;;;;;;;22.95;3.47;;;;;;;;;;5009335;28;20054;-68
2023/01/11 12:00:27;;;;;;;24.65;3.33;;;;;;;;;;5015118;28;20033;-67
2023/01/11 12:03:05;;;;;;;18.60;2.80;;;;;;;;;;5029540;28;20155;-68
2023/01/11 12:05:31;;;;;;;22.25;3.17;;;;;;;;;;5030408;28;20450;-68
2023/01/11 12:07:57;;;;;;;18.65;2.63;;;;;;;;;;5029974;28;20078;-68
2023/01/11 12:10:24;;;;;;;21.13;2.67;;;;;;;;;;5029964;28;20046;-68
2023/01/11 12:12:54;;;;;;;21.23;3.15;;;;;;;;;;5030744;28;20068;-68
2023/01/11 12:15:28;;;;;;;22.42;3.40;;;;;;;;;;5030372;28;20364;-68
2023/01/11 12:17:54;;;;;;;15.85;2.70;;;;;;;;;;5029722;28;20055;-68
2023/01/11 12:20:28;;;;;;;24.63;2.95;;;;;;;;;;5029404;28;20053;-68
2023/01/11 12:23:29;;;;;;;13.90;2.58;;;;;;;;;;5010502;28;20532;-68
2023/01/11 12:26:10;;;;;;;13.05;2.65;;;;;;;;;;4964070;28;20046;-68
2023/01/11 12:28:36;;;;;;;21.05;3.22;;;;;;;;;;5014180;28;20049;-68
2023/01/11 12:31:11;;;;;;;15.05;2.60;;;;;;;;;;5026686;28;20050;-68
2023/01/11 12:34:06;;;;;;;14.00;2.53;;;;;;;;;;5024897;28;20043;-68
2023/01/11 12:36:56;;;;;;;19.23;2.45;;;;;;;;;;4989163;28;20584;-68
2023/01/11 12:39:40;;;;;;;16.65;3.33;;;;;;;;;;5022030;28;20037;-68
2023/01/11 12:42:14;;;;;;;20.10;3.00;;;;;;;;;;5027571;28;20038;-68
2023/01/11 12:44:56;;;;;;;17.90;3.00;;;;;;;;;;5026696;28;20046;-68
2023/01/11 12:47:22;;;;;;;;;;;;;;;;;;5029062;28;20482;-68
2023/01/11 12:49:53;;;;;;;21.58;3.20;;;;;;;;;;5028959;28;19921;-68
2023/01/11 12:52:28;;;;;;;21.75;3.38;;;;;;;;;;5024636;28;20045;-68
2023/01/11 12:55:01;;;;;;;22.13;3.33;;;;;;;;;;5028576;28;20099;-68
2023/01/11 12:57:38;;;;;;;23.48;4.18;;;;;;;;;;5028175;28;20029;-68
2023/01/11 13:00:06;;;;;;;26.00;4.03;;;;;;;;;;5030997;28;20068;-68
2023/01/11 13:02:53;;;;;;;19.20;3.60;;;;;;;;;;5032306;28;20041;-67
2023/01/11 13:05:34;;;;;;;24.25;4.07;;;;;;;;;;4996923;28;20056;-67
2023/01/11 13:08:16;;;;;;;25.80;4.45;;;;;;;;;;5016387;28;20163;-67
2023/01/11 13:10:49;;;;;;;15.43;3.05;;;;;;;;;;5015153;28;20046;-67
2023/01/11 13:13:19;;;;;;;20.95;4.05;;;;;;;;;;5031564;28;20072;-68
2023/01/11 13:16:06;;;;;;;19.13;2.63;;;;;;;;;;5032459;28;20095;-68
2023/01/11 13:18:38;;;;;;;19.67;3.03;;;;;;;;;;5031059;28;20049;-68
2023/01/11 13:21:07;;;;;;;20.00;3.17;;;;;;;;;;5032295;28;20076;-68
2023/01/11 13:23:33;;;;;;;22.20;3.58;;;;;;;;;;5032331;28;20060;-68
2023/01/11 13:26:06;;;;;;;25.63;3.42;;;;;;;;;;5028085;28;20069;-68
2023/01/11 13:28:35;;;;;;;24.25;3.85;;;;;;;;;;5028389;28;20041;-67
2023/01/11 13:31:03;;;;;;;24.95;3.42;;;;;;;;;;5031974;28;20034;-68
2023/01/11 13:33:29;;;;;;;23.75;3.22;;;;;;;;;;5028345;28;20042;-67
2023/01/11 13:35:58;;;;;;;14.00;2.85;;;;;;;;;;5029774;28;20042;-67
2023/01/11 13:38:28;;;;;;;24.25;3.38;;;;;;;;;;5029443;28;20041;-68
2023/01/11 13:40:57;;;;;;;20.50;2.92;;;;;;;;;;5031921;28;20099;-68
2023/01/11 13:43:42;;;;;;;20.25;3.13;;;;;;;;;;5032268;28;20116;-68
2023/01/11 13:46:15;;;;;;;24.52;4.72;;;;;;;;;;5029224;28;20164;-68
2023/01/11 13:48:44;;;;;;;15.73;2.63;;;;;;;;;;5031663;28;20096;-68
2023/01/11 13:51:10;;;;;;;25.08;3.00;;;;;;;;;;5032362;28;20605;-68
2023/01/11 13:53:38;;;;;;;19.00;2.72;;;;;;;;;;5028998;28;20041;-68
2023/01/11 13:56:06;;;;;;;20.05;2.88;;;;;;;;;;5025828;28;20037;-68
2023/01/11 13:58:55;;;;;;;14.43;2.55;;;;;;;;;;5014249;28;20042;-69
2023/01/11 14:01:34;;;;;;;21.80;3.20;;;;;;;;;;5020075;28;20064;-70
2023/01/11 14:04:03;;;;;;;14.35;2.35;;;;;;;;;;5031998;28;20049;-70
2023/01/11 14:06:29;;;;;;;23.38;3.55;;;;;;;;;;5031492;28;20129;-70
2023/01/11 14:09:14;;;;;;;23.50;3.08;;;;;;;;;;5027215;28;20116;-71
2023/01/11 14:11:54;;;;;;;15.77;2.35;;;;;;;;;;5026894;28;20045;-69
2023/01/11 14:14:46;;;;;;;21.73;3.10;;;;;;;;;;5028357;28;20048;-67
2023/01/11 14:17:35;;;;;;;21.20;3.42;;;;;;;;;;5015718;28;20136;-71
2023/01/11 14:20:06;;;;;;;18.10;3.03;;;;;;;;;;5012590;28;20140;-69
2023/01/11 14:22:51;;;;;;;23.35;3.15;;;;;;;;;;5029718;28;20057;-70
2023/01/11 14:25:20;;;;;;;22.00;3.03;;;;;;;;;;5024687;28;20044;-71
2023/01/11 14:27:46;;;;;;;24.45;3.72;;;;;;;;;;5030076;28;20065;-71
2023/01/11 14:30:30;;;;;;;21.85;3.90;;;;;;;;;;5030560;28;20053;-71
2023/01/11 14:33:15;;;;;;;26.77;3.25;;;;;;;;;;5031355;28;20407;-70
2023/01/11 14:35:41;;;;;;;20.20;3.10;;;;;;;;;;5010359;28;20050;-70
2023/01/11 14:38:26;;;;;;;18.40;3.17;;;;;;;;;;5030475;28;20048;-70
2023/01/11 14:40:59;;;;;;;24.90;3.60;;;;;;;;;;5030262;28;20052;-70
2023/01/11 14:43:28;;;;;;;18.20;4.03;;;;;;;;;;5026997;28;20083;-70
2023/01/11 14:46:10;;;;;;;18.90;2.58;;;;;;;;;;5029166;28;20049;-70
2023/01/11 14:48:45;;;;;;;27.73;4.25;;;;;;;;;;5025205;28;20088;-67
2023/01/11 14:51:21;;;;;;;15.68;3.10;;;;;;;;;;5025963;28;20037;-68
2023/01/11 14:53:54;;;;;;;20.20;3.40;;;;;;;;;;5025754;28;20049;-68
2023/01/11 14:56:39;;;;;;;21.27;4.35;;;;;;;;;;5028201;28;20076;-67
2023/01/11 14:59:20;;;;;;;19.13;4.05;;;;;;;;;;5029910;28;20037;-68
2023/01/11 15:02:05;;;;;;;19.00;3.95;;;;;;;;;;5028647;28;20041;-68
2023/01/11 15:04:35;;;;;;;19.85;3.50;;;;;;;;;;5030517;28;20033;-64
2023/01/11 15:07:02;;;;;;;19.23;3.03;;;;;;;;;;5030538;28;20033;-64
2023/01/11 15:09:44;;;;;;;20.75;4.53;;;;;;;;;;5029806;28;20067;-64
2023/01/11 15:12:14;;;;;;;24.92;4.57;;;;;;;;;;5036637;28;20041;-63
2023/01/11 15:14:46;;;;;;;17.17;4.38;;;;;;;;;;5023687;28;20045;-63
2023/01/11 15:20:08;;;;;;;22.25;3.83;;;;;;;;;;5030845;28;20649;-63
2023/01/11 15:22:34;;;;;;;21.13;4.30;;;;;;;;;;5029984;28;20395;-63
2023/01/11 15:25:02;;;;;;;25.00;3.92;;;;;;;;;;5030090;28;20044;-63